sensor_id;sensor_type;location;lat;lon;timestamp;P1;durP1;ratioP1;P2;durP2;ratioP2
18449;SDS011;9354;50.194;7.690;2023-12-22T00:00:49;3.10;;;0.33;;
18449;SDS011;9354;50.194;7.690;2023-12-22T00:03:16;0.87;;;0.30;;
18449;SDS011;9354;50.194;7.690;2023-12-22T00:05:44;1.37;;;0.30;;
18449;SDS011;9354;50.194;7.690;2023-12-22T00:08:11;1.13;;;0.40;;
18449;SDS011;9354;50.194;7.690;2023-12-22T00:10:39;1.80;;;0.40;;
18449;SDS011;9354;50.194;7.690;2023-12-22T00:13:08;5.33;;;0.67;;
18449;SDS011;9354;50.194;7.690;2023-12-22T00:15:35;1.77;;;1.07;;
18449;SDS011;9354;50.194;7.690;2023-12-22T00:18:03;1.87;;;0.40;;
18449;SDS011;9354;50.194;7.690;2023-12-22T00:20:31;1.67;;;0.50;;
18449;SDS011;9354;50.194;7.690;2023-12-22T00:22:59;4.37;;;0.70;;
18449;SDS011;9354;50.194;7.690;2023-12-22T00:25:26;2.57;;;0.40;;
18449;SDS011;9354;50.194;7.690;2023-12-22T00:27:53;2.03;;;0.60;;
18449;SDS011;9354;50.194;7.690;2023-12-22T00:30:22;6.70;;;0.70;;
18449;SDS011;9354;50.194;7.690;2023-12-22T00:32:50;5.93;;;0.60;;
18449;SDS011;9354;50.194;7.690;2023-12-22T00:35:18;2.10;;;0.50;;
18449;SDS011;9354;50.194;7.690;2023-12-22T00:37:45;2.77;;;0.67;;
18449;SDS011;9354;50.194;7.690;2023-12-22T00:40:12;1.00;;;0.50;;
18449;SDS011;9354;50.194;7.690;2023-12-22T00:42:40;4.33;;;0.57;;
18449;SDS011;9354;50.194;7.690;2023-12-22T00:45:07;0.60;;;0.30;;
18449;SDS011;9354;50.194;7.690;2023-12-22T00:47:37;2.87;;;0.60;;
18449;SDS011;9354;50.194;7.690;2023-12-22T00:50:05;3.43;;;0.50;;
18449;SDS011;9354;50.194;7.690;2023-12-22T00:52:33;2.93;;;0.60;;
18449;SDS011;9354;50.194;7.690;2023-12-22T00:55:01;5.73;;;0.90;;
18449;SDS011;9354;50.194;7.690;2023-12-22T00:57:28;3.30;;;0.57;;
18449;SDS011;9354;50.194;7.690;2023-12-22T00:59:55;2.83;;;0.60;;
18449;SDS011;9354;50.194;7.690;2023-12-22T01:02:23;7.90;;;0.90;;
18449;SDS011;9354;50.194;7.690;2023-12-22T01:04:51;6.00;;;0.83;;
18449;SDS011;9354;50.194;7.690;2023-12-22T01:07:19;8.33;;;1.47;;
18449;SDS011;9354;50.194;7.690;2023-12-22T01:09:46;2.70;;;0.50;;
18449;SDS011;9354;50.194;7.690;2023-12-22T01:12:13;5.63;;;0.70;;
18449;SDS011;9354;50.194;7.690;2023-12-22T01:14:41;2.63;;;0.50;;
18449;SDS011;9354;50.194;7.690;2023-12-22T01:17:10;5.10;;;0.77;;
18449;SDS011;9354;50.194;7.690;2023-12-22T01:19:38;3.43;;;0.80;;
18449;SDS011;9354;50.194;7.690;2023-12-22T01:22:06;7.50;;;0.80;;
18449;SDS011;9354;50.194;7.690;2023-12-22T01:24:34;2.50;;;0.57;;
18449;SDS011;9354;50.194;7.690;2023-12-22T01:27:05;1.13;;;0.60;;
18449;SDS011;9354;50.194;7.690;2023-12-22T01:29:32;2.77;;;0.43;;
18449;SDS011;9354;50.194;7.690;2023-12-22T01:31:59;2.87;;;0.50;;
18449;SDS011;9354;50.194;7.690;2023-12-22T01:34:27;2.13;;;0.70;;
18449;SDS011;9354;50.194;7.690;2023-12-22T01:36:54;1.63;;;0.70;;
18449;SDS011;9354;50.194;7.690;2023-12-22T01:39:23;1.10;;;0.50;;
18449;SDS011;9354;50.194;7.690;2023-12-22T01:41:50;2.17;;;0.60;;
18449;SDS011;9354;50.194;7.690;2023-12-22T01:44:18;3.00;;;0.90;;
18449;SDS011;9354;50.194;7.690;2023-12-22T01:46:45;4.53;;;0.60;;
18449;SDS011;9354;50.194;7.690;2023-12-22T01:49:13;3.17;;;0.53;;
18449;SDS011;9354;50.194;7.690;2023-12-22T01:51:41;2.80;;;0.60;;
18449;SDS011;9354;50.194;7.690;2023-12-22T01:54:10;1.80;;;0.40;;
18449;SDS011;9354;50.194;7.690;2023-12-22T01:56:40;4.17;;;0.77;;
18449;SDS011;9354;50.194;7.690;2023-12-22T01:59:08;6.03;;;0.90;;
18449;SDS011;9354;50.194;7.690;2023-12-22T02:01:36;2.10;;;1.07;;
18449;SDS011;9354;50.194;7.690;2023-12-22T02:04:04;4.73;;;0.70;;
18449;SDS011;9354;50.194;7.690;2023-12-22T02:06:32;4.23;;;0.63;;
18449;SDS011;9354;50.194;7.690;2023-12-22T02:09:02;4.60;;;1.03;;
18449;SDS011;9354;50.194;7.690;2023-12-22T02:11:30;3.13;;;0.77;;
18449;SDS011;9354;50.194;7.690;2023-12-22T02:13:59;5.40;;;0.83;;
18449;SDS011;9354;50.194;7.690;2023-12-22T02:16:30;5.23;;;0.93;;
18449;SDS011;9354;50.194;7.690;2023-12-22T02:19:04;8.27;;;0.83;;
18449;SDS011;9354;50.194;7.690;2023-12-22T02:21:59;2.87;;;0.77;;
18449;SDS011;9354;50.194;7.690;2023-12-22T02:24:28;2.60;;;0.87;;
18449;SDS011;9354;50.194;7.690;2023-12-22T02:26:56;4.50;;;1.10;;
18449;SDS011;9354;50.194;7.690;2023-12-22T02:29:30;3.63;;;0.77;;
18449;SDS011;9354;50.194;7.690;2023-12-22T02:32:02;4.97;;;1.17;;
18449;SDS011;9354;50.194;7.690;2023-12-22T02:34:34;6.57;;;1.23;;
18449;SDS011;9354;50.194;7.690;2023-12-22T02:37:04;6.40;;;1.00;;
18449;SDS011;9354;50.194;7.690;2023-12-22T02:39:36;4.03;;;1.07;;
18449;SDS011;9354;50.194;7.690;2023-12-22T02:42:03;9.83;;;1.07;;
18449;SDS011;9354;50.194;7.690;2023-12-22T02:44:32;6.00;;;0.90;;
18449;SDS011;9354;50.194;7.690;2023-12-22T02:46:59;4.90;;;0.77;;
18449;SDS011;9354;50.194;7.690;2023-12-22T02:49:27;4.47;;;1.00;;
18449;SDS011;9354;50.194;7.690;2023-12-22T02:51:54;4.97;;;0.90;;
18449;SDS011;9354;50.194;7.690;2023-12-22T02:54:21;5.77;;;0.87;;
18449;SDS011;9354;50.194;7.690;2023-12-22T02:56:50;5.03;;;0.93;;
18449;SDS011;9354;50.194;7.690;2023-12-22T02:59:17;6.03;;;1.17;;
18449;SDS011;9354;50.194;7.690;2023-12-22T03:01:45;5.33;;;1.10;;
18449;SDS011;9354;50.194;7.690;2023-12-22T03:04:12;14.43;;;1.67;;
18449;SDS011;9354;50.194;7.690;2023-12-22T03:06:40;7.57;;;1.90;;
18449;SDS011;9354;50.194;7.690;2023-12-22T03:09:07;7.37;;;0.80;;
18449;SDS011;9354;50.194;7.690;2023-12-22T03:11:34;2.63;;;0.70;;
18449;SDS011;9354;50.194;7.690;2023-12-22T03:14:03;6.00;;;0.87;;
18449;SDS011;9354;50.194;7.690;2023-12-22T03:16:30;5.03;;;0.77;;
18449;SDS011;9354;50.194;7.690;2023-12-22T03:18:58;4.80;;;0.80;;
18449;SDS011;9354;50.194;7.690;2023-12-22T03:21:25;5.13;;;0.70;;
18449;SDS011;9354;50.194;7.690;2023-12-22T03:23:52;2.40;;;0.50;;
18449;SDS011;9354;50.194;7.690;2023-12-22T03:26:20;3.07;;;0.70;;
18449;SDS011;9354;50.194;7.690;2023-12-22T03:28:47;4.33;;;0.70;;
18449;SDS011;9354;50.194;7.690;2023-12-22T03:31:16;4.27;;;0.57;;
18449;SDS011;9354;50.194;7.690;2023-12-22T03:33:43;2.23;;;0.80;;
18449;SDS011;9354;50.194;7.690;2023-12-22T03:36:11;2.90;;;0.73;;
18449;SDS011;9354;50.194;7.690;2023-12-22T03:38:38;5.20;;;0.97;;
18449;SDS011;9354;50.194;7.690;2023-12-22T03:41:05;4.10;;;0.70;;
18449;SDS011;9354;50.194;7.690;2023-12-22T03:43:33;5.43;;;0.83;;
18449;SDS011;9354;50.194;7.690;2023-12-22T03:46:00;2.93;;;0.70;;
18449;SDS011;9354;50.194;7.690;2023-12-22T03:48:29;5.43;;;0.90;;
18449;SDS011;9354;50.194;7.690;2023-12-22T03:50:57;4.57;;;0.80;;
18449;SDS011;9354;50.194;7.690;2023-12-22T03:53:24;7.43;;;0.93;;
18449;SDS011;9354;50.194;7.690;2023-12-22T03:55:52;5.43;;;0.60;;
18449;SDS011;9354;50.194;7.690;2023-12-22T03:58:19;3.67;;;0.70;;
18449;SDS011;9354;50.194;7.690;2023-12-22T04:00:46;3.50;;;0.70;;
18449;SDS011;9354;50.194;7.690;2023-12-22T04:03:14;9.03;;;0.70;;
18449;SDS011;9354;50.194;7.690;2023-12-22T04:05:43;4.33;;;0.73;;
18449;SDS011;9354;50.194;7.690;2023-12-22T04:08:10;6.57;;;1.00;;
18449;SDS011;9354;50.194;7.690;2023-12-22T04:10:37;9.70;;;1.20;;
18449;SDS011;9354;50.194;7.690;2023-12-22T04:13:05;5.40;;;1.10;;
18449;SDS011;9354;50.194;7.690;2023-12-22T04:15:33;8.47;;;1.33;;
18449;SDS011;9354;50.194;7.690;2023-12-22T04:18:00;3.13;;;0.67;;
18449;SDS011;9354;50.194;7.690;2023-12-22T04:20:27;3.90;;;0.70;;
18449;SDS011;9354;50.194;7.690;2023-12-22T04:22:56;6.50;;;1.13;;
18449;SDS011;9354;50.194;7.690;2023-12-22T04:25:23;4.80;;;0.97;;
18449;SDS011;9354;50.194;7.690;2023-12-22T04:27:51;3.13;;;0.80;;
18449;SDS011;9354;50.194;7.690;2023-12-22T04:30:18;7.23;;;1.70;;
18449;SDS011;9354;50.194;7.690;2023-12-22T04:32:46;9.97;;;1.73;;
18449;SDS011;9354;50.194;7.690;2023-12-22T04:35:13;10.53;;;1.67;;
18449;SDS011;9354;50.194;7.690;2023-12-22T04:37:41;6.70;;;1.40;;
18449;SDS011;9354;50.194;7.690;2023-12-22T04:40:10;7.30;;;1.30;;
18449;SDS011;9354;50.194;7.690;2023-12-22T04:42:38;7.37;;;1.70;;
18449;SDS011;9354;50.194;7.690;2023-12-22T04:45:06;8.00;;;1.30;;
18449;SDS011;9354;50.194;7.690;2023-12-22T04:47:33;8.27;;;1.40;;
18449;SDS011;9354;50.194;7.690;2023-12-22T04:50:01;8.27;;;1.07;;
18449;SDS011;9354;50.194;7.690;2023-12-22T04:52:28;5.03;;;1.40;;
18449;SDS011;9354;50.194;7.690;2023-12-22T04:54:55;6.43;;;0.83;;
18449;SDS011;9354;50.194;7.690;2023-12-22T04:57:24;5.90;;;0.80;;
18449;SDS011;9354;50.194;7.690;2023-12-22T04:59:51;3.83;;;0.80;;
18449;SDS011;9354;50.194;7.690;2023-12-22T05:02:19;6.50;;;0.80;;
18449;SDS011;9354;50.194;7.690;2023-12-22T05:04:46;6.70;;;0.90;;
18449;SDS011;9354;50.194;7.690;2023-12-22T05:07:14;2.10;;;0.53;;
18449;SDS011;9354;50.194;7.690;2023-12-22T05:09:41;4.73;;;0.87;;
18449;SDS011;9354;50.194;7.690;2023-12-22T05:12:09;4.70;;;0.70;;
18449;SDS011;9354;50.194;7.690;2023-12-22T05:14:38;1.27;;;0.50;;
18449;SDS011;9354;50.194;7.690;2023-12-22T05:17:05;2.67;;;0.60;;
18449;SDS011;9354;50.194;7.690;2023-12-22T05:19:32;2.10;;;0.60;;
18449;SDS011;9354;50.194;7.690;2023-12-22T05:22:00;6.90;;;0.93;;
18449;SDS011;9354;50.194;7.690;2023-12-22T05:24:27;5.97;;;0.80;;
18449;SDS011;9354;50.194;7.690;2023-12-22T05:26:55;7.70;;;1.10;;
18449;SDS011;9354;50.194;7.690;2023-12-22T05:29:22;2.57;;;0.73;;
18449;SDS011;9354;50.194;7.690;2023-12-22T05:31:51;4.57;;;0.60;;
18449;SDS011;9354;50.194;7.690;2023-12-22T05:34:18;6.97;;;1.20;;
18449;SDS011;9354;50.194;7.690;2023-12-22T05:36:45;7.07;;;1.40;;
18449;SDS011;9354;50.194;7.690;2023-12-22T05:39:13;4.60;;;1.10;;
18449;SDS011;9354;50.194;7.690;2023-12-22T05:41:40;6.33;;;1.10;;
18449;SDS011;9354;50.194;7.690;2023-12-22T05:44:08;8.13;;;0.90;;
18449;SDS011;9354;50.194;7.690;2023-12-22T05:46:35;7.43;;;1.17;;
18449;SDS011;9354;50.194;7.690;2023-12-22T05:49:05;3.13;;;0.90;;
18449;SDS011;9354;50.194;7.690;2023-12-22T05:51:36;9.97;;;1.00;;
18449;SDS011;9354;50.194;7.690;2023-12-22T05:54:04;10.77;;;1.50;;
18449;SDS011;9354;50.194;7.690;2023-12-22T05:56:32;7.43;;;1.30;;
18449;SDS011;9354;50.194;7.690;2023-12-22T05:58:59;7.57;;;1.17;;
18449;SDS011;9354;50.194;7.690;2023-12-22T06:01:27;11.43;;;1.97;;
18449;SDS011;9354;50.194;7.690;2023-12-22T06:03:54;9.50;;;2.93;;
18449;SDS011;9354;50.194;7.690;2023-12-22T06:06:23;8.90;;;1.67;;
18449;SDS011;9354;50.194;7.690;2023-12-22T06:08:50;8.33;;;1.90;;
18449;SDS011;9354;50.194;7.690;2023-12-22T06:11:18;10.43;;;1.50;;
18449;SDS011;9354;50.194;7.690;2023-12-22T06:13:45;11.33;;;2.10;;
18449;SDS011;9354;50.194;7.690;2023-12-22T06:16:13;7.47;;;1.30;;
18449;SDS011;9354;50.194;7.690;2023-12-22T06:18:41;11.90;;;1.40;;
18449;SDS011;9354;50.194;7.690;2023-12-22T06:21:09;14.90;;;4.87;;
18449;SDS011;9354;50.194;7.690;2023-12-22T06:23:38;10.47;;;2.20;;
18449;SDS011;9354;50.194;7.690;2023-12-22T06:26:07;12.60;;;1.20;;
18449;SDS011;9354;50.194;7.690;2023-12-22T06:28:36;8.63;;;1.67;;
18449;SDS011;9354;50.194;7.690;2023-12-22T06:31:05;9.73;;;1.70;;
18449;SDS011;9354;50.194;7.690;2023-12-22T06:33:32;14.13;;;3.70;;
18449;SDS011;9354;50.194;7.690;2023-12-22T06:36:00;7.63;;;1.70;;
18449;SDS011;9354;50.194;7.690;2023-12-22T06:38:27;12.63;;;2.30;;
18449;SDS011;9354;50.194;7.690;2023-12-22T06:40:56;25.47;;;7.30;;
18449;SDS011;9354;50.194;7.690;2023-12-22T06:43:23;15.33;;;4.47;;
18449;SDS011;9354;50.194;7.690;2023-12-22T06:45:51;11.33;;;1.73;;
18449;SDS011;9354;50.194;7.690;2023-12-22T06:48:20;12.03;;;2.47;;
18449;SDS011;9354;50.194;7.690;2023-12-22T06:50:48;9.30;;;2.10;;
18449;SDS011;9354;50.194;7.690;2023-12-22T06:53:15;11.97;;;2.17;;
18449;SDS011;9354;50.194;7.690;2023-12-22T06:55:43;10.33;;;3.73;;
18449;SDS011;9354;50.194;7.690;2023-12-22T06:58:12;10.00;;;2.10;;
18449;SDS011;9354;50.194;7.690;2023-12-22T07:00:40;11.63;;;1.70;;
18449;SDS011;9354;50.194;7.690;2023-12-22T07:03:07;10.10;;;2.03;;
18449;SDS011;9354;50.194;7.690;2023-12-22T07:05:35;11.57;;;1.47;;
18449;SDS011;9354;50.194;7.690;2023-12-22T07:08:04;5.97;;;1.00;;
18449;SDS011;9354;50.194;7.690;2023-12-22T07:10:32;8.83;;;1.30;;
18449;SDS011;9354;50.194;7.690;2023-12-22T07:12:59;5.87;;;1.40;;
18449;SDS011;9354;50.194;7.690;2023-12-22T07:15:28;6.90;;;2.60;;
18449;SDS011;9354;50.194;7.690;2023-12-22T07:17:55;7.40;;;1.67;;
18449;SDS011;9354;50.194;7.690;2023-12-22T07:20:23;6.20;;;1.47;;
18449;SDS011;9354;50.194;7.690;2023-12-22T07:22:50;5.47;;;0.93;;
18449;SDS011;9354;50.194;7.690;2023-12-22T07:25:19;9.03;;;1.50;;
18449;SDS011;9354;50.194;7.690;2023-12-22T07:27:46;4.47;;;1.43;;
18449;SDS011;9354;50.194;7.690;2023-12-22T07:30:14;3.63;;;1.23;;
18449;SDS011;9354;50.194;7.690;2023-12-22T07:32:44;4.53;;;1.53;;
18449;SDS011;9354;50.194;7.690;2023-12-22T07:35:14;4.70;;;1.43;;
18449;SDS011;9354;50.194;7.690;2023-12-22T07:37:42;8.50;;;2.73;;
18449;SDS011;9354;50.194;7.690;2023-12-22T07:40:10;6.20;;;1.60;;
18449;SDS011;9354;50.194;7.690;2023-12-22T07:42:38;7.97;;;1.70;;
18449;SDS011;9354;50.194;7.690;2023-12-22T07:45:05;13.60;;;1.97;;
18449;SDS011;9354;50.194;7.690;2023-12-22T07:47:34;5.73;;;1.50;;
18449;SDS011;9354;50.194;7.690;2023-12-22T07:50:04;6.60;;;1.20;;
18449;SDS011;9354;50.194;7.690;2023-12-22T07:52:34;6.53;;;1.07;;
18449;SDS011;9354;50.194;7.690;2023-12-22T07:55:04;4.47;;;1.10;;
18449;SDS011;9354;50.194;7.690;2023-12-22T07:57:32;3.83;;;1.10;;
18449;SDS011;9354;50.194;7.690;2023-12-22T08:00:00;4.07;;;1.30;;
18449;SDS011;9354;50.194;7.690;2023-12-22T08:02:28;4.83;;;1.10;;
18449;SDS011;9354;50.194;7.690;2023-12-22T08:04:55;5.50;;;1.10;;
18449;SDS011;9354;50.194;7.690;2023-12-22T08:07:24;8.50;;;1.10;;
18449;SDS011;9354;50.194;7.690;2023-12-22T08:09:51;4.87;;;1.33;;
18449;SDS011;9354;50.194;7.690;2023-12-22T08:12:18;6.63;;;1.10;;
18449;SDS011;9354;50.194;7.690;2023-12-22T08:14:46;4.93;;;1.10;;
18449;SDS011;9354;50.194;7.690;2023-12-22T08:17:13;8.17;;;1.30;;
18449;SDS011;9354;50.194;7.690;2023-12-22T08:19:41;5.27;;;1.03;;
18449;SDS011;9354;50.194;7.690;2023-12-22T08:22:09;11.43;;;2.97;;
18449;SDS011;9354;50.194;7.690;2023-12-22T08:24:40;7.37;;;1.40;;
18449;SDS011;9354;50.194;7.690;2023-12-22T08:27:07;5.00;;;1.10;;
18449;SDS011;9354;50.194;7.690;2023-12-22T08:29:35;8.47;;;1.90;;
18449;SDS011;9354;50.194;7.690;2023-12-22T08:32:02;4.43;;;1.30;;
18449;SDS011;9354;50.194;7.690;2023-12-22T08:34:30;7.33;;;1.47;;
18449;SDS011;9354;50.194;7.690;2023-12-22T08:36:58;9.30;;;1.83;;
18449;SDS011;9354;50.194;7.690;2023-12-22T08:39:26;8.03;;;2.00;;
18449;SDS011;9354;50.194;7.690;2023-12-22T08:41:54;9.23;;;1.80;;
18449;SDS011;9354;50.194;7.690;2023-12-22T08:44:22;8.30;;;2.03;;
18449;SDS011;9354;50.194;7.690;2023-12-22T08:46:49;9.10;;;2.53;;
18449;SDS011;9354;50.194;7.690;2023-12-22T08:49:17;11.33;;;2.00;;
18449;SDS011;9354;50.194;7.690;2023-12-22T08:51:44;10.70;;;1.87;;
18449;SDS011;9354;50.194;7.690;2023-12-22T08:54:11;14.37;;;2.17;;
18449;SDS011;9354;50.194;7.690;2023-12-22T08:56:39;11.63;;;2.10;;
18449;SDS011;9354;50.194;7.690;2023-12-22T08:59:08;16.93;;;2.30;;
18449;SDS011;9354;50.194;7.690;2023-12-22T09:01:35;13.10;;;2.07;;
18449;SDS011;9354;50.194;7.690;2023-12-22T09:04:03;13.23;;;2.27;;
18449;SDS011;9354;50.194;7.690;2023-12-22T09:06:30;13.57;;;2.63;;
18449;SDS011;9354;50.194;7.690;2023-12-22T09:08:57;14.07;;;2.10;;
18449;SDS011;9354;50.194;7.690;2023-12-22T09:11:25;13.57;;;3.27;;
18449;SDS011;9354;50.194;7.690;2023-12-22T09:13:52;14.80;;;2.63;;
18449;SDS011;9354;50.194;7.690;2023-12-22T09:16:21;13.77;;;3.13;;
18449;SDS011;9354;50.194;7.690;2023-12-22T09:18:51;14.10;;;3.33;;
18449;SDS011;9354;50.194;7.690;2023-12-22T09:21:19;8.57;;;1.97;;
18449;SDS011;9354;50.194;7.690;2023-12-22T09:23:46;19.83;;;2.67;;
18449;SDS011;9354;50.194;7.690;2023-12-22T09:26:15;12.03;;;1.77;;
18449;SDS011;9354;50.194;7.690;2023-12-22T09:28:43;20.03;;;2.60;;
18449;SDS011;9354;50.194;7.690;2023-12-22T09:31:12;13.73;;;1.97;;
18449;SDS011;9354;50.194;7.690;2023-12-22T09:33:41;15.20;;;2.23;;
18449;SDS011;9354;50.194;7.690;2023-12-22T09:36:09;13.37;;;2.20;;
18449;SDS011;9354;50.194;7.690;2023-12-22T09:38:37;13.80;;;2.07;;
18449;SDS011;9354;50.194;7.690;2023-12-22T09:41:04;10.87;;;1.77;;
18449;SDS011;9354;50.194;7.690;2023-12-22T09:43:32;14.60;;;2.13;;
18449;SDS011;9354;50.194;7.690;2023-12-22T09:46:03;13.00;;;2.20;;
18449;SDS011;9354;50.194;7.690;2023-12-22T09:48:31;12.57;;;2.63;;
18449;SDS011;9354;50.194;7.690;2023-12-22T09:51:03;16.90;;;3.53;;
18449;SDS011;9354;50.194;7.690;2023-12-22T09:53:31;20.23;;;3.03;;
18449;SDS011;9354;50.194;7.690;2023-12-22T09:56:01;10.00;;;2.30;;
18449;SDS011;9354;50.194;7.690;2023-12-22T09:58:29;14.13;;;2.63;;
18449;SDS011;9354;50.194;7.690;2023-12-22T10:00:56;16.60;;;3.17;;
18449;SDS011;9354;50.194;7.690;2023-12-22T10:03:27;13.63;;;2.87;;
18449;SDS011;9354;50.194;7.690;2023-12-22T10:05:55;11.53;;;2.13;;
18449;SDS011;9354;50.194;7.690;2023-12-22T10:08:24;13.73;;;2.30;;
18449;SDS011;9354;50.194;7.690;2023-12-22T10:10:53;18.60;;;2.63;;
18449;SDS011;9354;50.194;7.690;2023-12-22T10:13:21;11.37;;;2.00;;
18449;SDS011;9354;50.194;7.690;2023-12-22T10:15:49;15.27;;;2.23;;
18449;SDS011;9354;50.194;7.690;2023-12-22T10:18:17;14.97;;;2.13;;
18449;SDS011;9354;50.194;7.690;2023-12-22T10:20:44;10.80;;;2.27;;
18449;SDS011;9354;50.194;7.690;2023-12-22T10:23:13;12.10;;;2.40;;
18449;SDS011;9354;50.194;7.690;2023-12-22T10:25:42;12.77;;;2.00;;
18449;SDS011;9354;50.194;7.690;2023-12-22T10:28:10;7.33;;;1.70;;
18449;SDS011;9354;50.194;7.690;2023-12-22T10:30:39;14.30;;;1.83;;
18449;SDS011;9354;50.194;7.690;2023-12-22T10:33:07;12.73;;;1.80;;
18449;SDS011;9354;50.194;7.690;2023-12-22T10:35:34;6.90;;;1.60;;
18449;SDS011;9354;50.194;7.690;2023-12-22T10:38:02;14.27;;;2.17;;
18449;SDS011;9354;50.194;7.690;2023-12-22T10:40:31;8.67;;;2.10;;
18449;SDS011;9354;50.194;7.690;2023-12-22T10:42:59;7.00;;;1.83;;
18449;SDS011;9354;50.194;7.690;2023-12-22T10:45:28;8.00;;;1.73;;
18449;SDS011;9354;50.194;7.690;2023-12-22T10:47:56;6.60;;;1.57;;
18449;SDS011;9354;50.194;7.690;2023-12-22T10:50:25;11.27;;;1.70;;
18449;SDS011;9354;50.194;7.690;2023-12-22T10:52:52;12.00;;;1.53;;
18449;SDS011;9354;50.194;7.690;2023-12-22T10:55:20;6.03;;;1.20;;
18449;SDS011;9354;50.194;7.690;2023-12-22T10:57:47;7.37;;;1.50;;
18449;SDS011;9354;50.194;7.690;2023-12-22T11:00:16;9.00;;;1.60;;
18449;SDS011;9354;50.194;7.690;2023-12-22T11:02:47;6.20;;;1.60;;
18449;SDS011;9354;50.194;7.690;2023-12-22T11:05:15;6.83;;;1.43;;
18449;SDS011;9354;50.194;7.690;2023-12-22T11:07:46;6.30;;;1.53;;
18449;SDS011;9354;50.194;7.690;2023-12-22T11:10:17;12.57;;;2.43;;
18449;SDS011;9354;50.194;7.690;2023-12-22T11:12:47;12.80;;;2.17;;
18449;SDS011;9354;50.194;7.690;2023-12-22T11:15:15;17.67;;;5.23;;
18449;SDS011;9354;50.194;7.690;2023-12-22T11:17:44;14.97;;;5.00;;
18449;SDS011;9354;50.194;7.690;2023-12-22T11:20:15;9.10;;;2.60;;
18449;SDS011;9354;50.194;7.690;2023-12-22T11:22:43;12.63;;;3.07;;
18449;SDS011;9354;50.194;7.690;2023-12-22T11:25:11;9.93;;;2.47;;
18449;SDS011;9354;50.194;7.690;2023-12-22T11:27:41;6.73;;;1.37;;
18449;SDS011;9354;50.194;7.690;2023-12-22T11:30:10;6.03;;;1.23;;
18449;SDS011;9354;50.194;7.690;2023-12-22T11:32:40;7.13;;;1.80;;
18449;SDS011;9354;50.194;7.690;2023-12-22T11:35:10;4.60;;;1.10;;
18449;SDS011;9354;50.194;7.690;2023-12-22T11:37:39;5.97;;;1.30;;
18449;SDS011;9354;50.194;7.690;2023-12-22T11:40:08;3.23;;;0.90;;
18449;SDS011;9354;50.194;7.690;2023-12-22T11:42:38;4.90;;;0.87;;
18449;SDS011;9354;50.194;7.690;2023-12-22T11:45:10;3.77;;;1.47;;
18449;SDS011;9354;50.194;7.690;2023-12-22T11:47:38;3.33;;;1.37;;
18449;SDS011;9354;50.194;7.690;2023-12-22T11:50:09;5.57;;;1.30;;
18449;SDS011;9354;50.194;7.690;2023-12-22T11:52:37;3.97;;;0.97;;
18449;SDS011;9354;50.194;7.690;2023-12-22T11:55:04;5.03;;;1.30;;
18449;SDS011;9354;50.194;7.690;2023-12-22T11:57:33;4.57;;;1.10;;
18449;SDS011;9354;50.194;7.690;2023-12-22T12:00:06;3.33;;;1.00;;
18449;SDS011;9354;50.194;7.690;2023-12-22T12:02:36;7.40;;;1.50;;
18449;SDS011;9354;50.194;7.690;2023-12-22T12:05:08;3.83;;;1.00;;
18449;SDS011;9354;50.194;7.690;2023-12-22T12:07:36;6.37;;;1.10;;
18449;SDS011;9354;50.194;7.690;2023-12-22T12:10:05;5.70;;;1.30;;
18449;SDS011;9354;50.194;7.690;2023-12-22T12:12:33;3.23;;;0.90;;
18449;SDS011;9354;50.194;7.690;2023-12-22T12:15:11;2.30;;;0.80;;
18449;SDS011;9354;50.194;7.690;2023-12-22T12:17:43;2.20;;;0.93;;
18449;SDS011;9354;50.194;7.690;2023-12-22T12:20:12;3.73;;;1.00;;
18449;SDS011;9354;50.194;7.690;2023-12-22T12:22:42;8.83;;;1.00;;
18449;SDS011;9354;50.194;7.690;2023-12-22T12:25:10;8.27;;;1.20;;
18449;SDS011;9354;50.194;7.690;2023-12-22T12:27:37;3.17;;;0.80;;
18449;SDS011;9354;50.194;7.690;2023-12-22T12:30:12;3.20;;;0.57;;
18449;SDS011;9354;50.194;7.690;2023-12-22T12:32:41;5.07;;;0.90;;
18449;SDS011;9354;50.194;7.690;2023-12-22T12:35:12;3.87;;;1.30;;
18449;SDS011;9354;50.194;7.690;2023-12-22T12:37:40;3.20;;;0.87;;
18449;SDS011;9354;50.194;7.690;2023-12-22T12:40:11;4.10;;;0.90;;
18449;SDS011;9354;50.194;7.690;2023-12-22T12:42:38;5.47;;;1.00;;
18449;SDS011;9354;50.194;7.690;2023-12-22T12:45:06;4.63;;;0.90;;
18449;SDS011;9354;50.194;7.690;2023-12-22T12:47:34;1.47;;;0.67;;
18449;SDS011;9354;50.194;7.690;2023-12-22T12:50:02;3.10;;;0.80;;
18449;SDS011;9354;50.194;7.690;2023-12-22T12:52:31;3.57;;;0.60;;
18449;SDS011;9354;50.194;7.690;2023-12-22T12:54:58;3.20;;;0.80;;
18449;SDS011;9354;50.194;7.690;2023-12-22T12:57:26;0.73;;;0.30;;
18449;SDS011;9354;50.194;7.690;2023-12-22T12:59:53;4.00;;;0.80;;
18449;SDS011;9354;50.194;7.690;2023-12-22T13:02:21;1.10;;;0.53;;
18449;SDS011;9354;50.194;7.690;2023-12-22T13:04:49;1.50;;;0.60;;
18449;SDS011;9354;50.194;7.690;2023-12-22T13:07:26;3.30;;;1.07;;
18449;SDS011;9354;50.194;7.690;2023-12-22T13:09:55;4.40;;;0.53;;
18449;SDS011;9354;50.194;7.690;2023-12-22T13:12:23;1.13;;;0.50;;
18449;SDS011;9354;50.194;7.690;2023-12-22T13:14:51;0.77;;;0.43;;
18449;SDS011;9354;50.194;7.690;2023-12-22T13:17:18;0.90;;;0.50;;
18449;SDS011;9354;50.194;7.690;2023-12-22T13:19:47;1.33;;;0.80;;
18449;SDS011;9354;50.194;7.690;2023-12-22T13:22:15;1.17;;;0.87;;
18449;SDS011;9354;50.194;7.690;2023-12-22T13:24:55;3.23;;;0.67;;
18449;SDS011;9354;50.194;7.690;2023-12-22T13:27:23;3.53;;;1.60;;
18449;SDS011;9354;50.194;7.690;2023-12-22T13:29:50;1.80;;;0.73;;
18449;SDS011;9354;50.194;7.690;2023-12-22T13:32:20;1.83;;;0.73;;
18449;SDS011;9354;50.194;7.690;2023-12-22T13:34:49;1.93;;;0.80;;
18449;SDS011;9354;50.194;7.690;2023-12-22T13:37:18;1.87;;;0.80;;
18449;SDS011;9354;50.194;7.690;2023-12-22T13:39:46;2.23;;;0.70;;
18449;SDS011;9354;50.194;7.690;2023-12-22T13:42:16;2.60;;;0.83;;
18449;SDS011;9354;50.194;7.690;2023-12-22T13:44:45;2.10;;;0.70;;
18449;SDS011;9354;50.194;7.690;2023-12-22T13:47:15;0.73;;;0.60;;
18449;SDS011;9354;50.194;7.690;2023-12-22T13:49:42;1.67;;;0.80;;
18449;SDS011;9354;50.194;7.690;2023-12-22T13:52:24;2.10;;;1.10;;
18449;SDS011;9354;50.194;7.690;2023-12-22T13:54:52;2.03;;;1.20;;
18449;SDS011;9354;50.194;7.690;2023-12-22T13:57:23;7.03;;;3.20;;
18449;SDS011;9354;50.194;7.690;2023-12-22T13:59:51;3.37;;;1.70;;
18449;SDS011;9354;50.194;7.690;2023-12-22T14:02:21;1.53;;;0.60;;
18449;SDS011;9354;50.194;7.690;2023-12-22T14:04:49;0.57;;;0.57;;
18449;SDS011;9354;50.194;7.690;2023-12-22T14:07:17;3.90;;;0.90;;
18449;SDS011;9354;50.194;7.690;2023-12-22T14:09:44;3.07;;;0.97;;
18449;SDS011;9354;50.194;7.690;2023-12-22T14:12:12;4.53;;;1.20;;
18449;SDS011;9354;50.194;7.690;2023-12-22T14:14:40;1.83;;;0.60;;
18449;SDS011;9354;50.194;7.690;2023-12-22T14:17:08;0.97;;;0.50;;
18449;SDS011;9354;50.194;7.690;2023-12-22T14:19:35;1.83;;;0.63;;
18449;SDS011;9354;50.194;7.690;2023-12-22T14:22:03;0.83;;;0.40;;
18449;SDS011;9354;50.194;7.690;2023-12-22T14:24:30;0.93;;;0.50;;
18449;SDS011;9354;50.194;7.690;2023-12-22T14:26:58;0.90;;;0.40;;
18449;SDS011;9354;50.194;7.690;2023-12-22T14:29:25;1.40;;;0.60;;
18449;SDS011;9354;50.194;7.690;2023-12-22T14:31:54;1.37;;;1.00;;
18449;SDS011;9354;50.194;7.690;2023-12-22T14:34:21;1.63;;;0.67;;
18449;SDS011;9354;50.194;7.690;2023-12-22T14:36:49;2.07;;;0.80;;
18449;SDS011;9354;50.194;7.690;2023-12-22T14:39:16;2.30;;;0.80;;
18449;SDS011;9354;50.194;7.690;2023-12-22T14:41:43;1.00;;;0.60;;
18449;SDS011;9354;50.194;7.690;2023-12-22T14:44:12;1.60;;;0.50;;
18449;SDS011;9354;50.194;7.690;2023-12-22T14:46:39;0.90;;;0.50;;
18449;SDS011;9354;50.194;7.690;2023-12-22T14:49:08;1.17;;;0.70;;
18449;SDS011;9354;50.194;7.690;2023-12-22T14:51:35;21.90;;;9.80;;
18449;SDS011;9354;50.194;7.690;2023-12-22T14:54:04;0.83;;;0.70;;
18449;SDS011;9354;50.194;7.690;2023-12-22T14:56:31;4.73;;;1.00;;
18449;SDS011;9354;50.194;7.690;2023-12-22T14:58:59;3.03;;;1.57;;
18449;SDS011;9354;50.194;7.690;2023-12-22T15:01:26;2.27;;;0.80;;
18449;SDS011;9354;50.194;7.690;2023-12-22T15:03:54;1.70;;;0.50;;